Decoded Metar for KBFW (SILVER BAY in MN, USA) (IATA:BFW) | Meteo·Mobile Aviation Weather
aviador You're here:

KBFW Decoded Metar

SILVER BAY in MN, USA
Report Time2018-09-20 02:44:00
UTC Time2018-09-20 03:06:04
Flight Rules mvfr MVFR
WindCalm
Visibility9999 m
Phenomena:N/A
Clouds:Broken 026 Hf
Ceiling2,600 ft
Temp12°C (ISA -1)
Dew Point12°C (100% RH)
QNH1019 hPa
Density Alt974 ft
Elevation1,086 ft
Report Wrong Elevation
Raw Report
KBFW 200244Z AUTO 00000KT 10SM BKN026 12/12 A3010 RMK AO2=

Extra information for KBFW:More info

Metar Taf Metar & Taf Last 4 Metars F.Rules Stats Wind Profile Meteogram Temp Stats Airport Information Weather charts Add Link Nearby VenuesMetar ALERT Operation Metar Decoded Social comments

AIRNAV info for KBFW